sensor_id;sensor_type;location;lat;lon;timestamp;pressure;altitude;pressure_sealevel;temperature;humidity
48015;BME280;33780;51.034;7.120;2023-01-30T00:01:32;101212.84;;;2.78;76.70
48015;BME280;33780;51.034;7.120;2023-01-30T00:03:58;101204.84;;;2.79;76.92
48015;BME280;33780;51.034;7.120;2023-01-30T00:06:25;101212.69;;;2.81;76.92
48015;BME280;33780;51.034;7.120;2023-01-30T00:08:50;101209.13;;;2.82;76.53
48015;BME280;33780;51.034;7.120;2023-01-30T00:11:17;101187.91;;;2.83;77.19
48015;BME280;33780;51.034;7.120;2023-01-30T00:13:44;101183.47;;;2.84;76.88
48015;BME280;33780;51.034;7.120;2023-01-30T00:16:09;101167.53;;;2.85;77.07
48015;BME280;33780;51.034;7.120;2023-01-30T00:18:35;101155.19;;;2.86;77.08
48015;BME280;33780;51.034;7.120;2023-01-30T00:21:03;101153.34;;;2.88;76.97
48015;BME280;33780;51.034;7.120;2023-01-30T00:23:32;101165.63;;;2.89;77.21
48015;BME280;33780;51.034;7.120;2023-01-30T00:25:58;101170.84;;;2.90;77.46
48015;BME280;33780;51.034;7.120;2023-01-30T00:28:23;101173.41;;;2.92;77.08
48015;BME280;33780;51.034;7.120;2023-01-30T00:30:50;101172.50;;;2.93;77.39
48015;BME280;33780;51.034;7.120;2023-01-30T00:33:17;101156.63;;;2.93;77.05
48015;BME280;33780;51.034;7.120;2023-01-30T00:35:45;101143.34;;;2.94;77.25
48015;BME280;33780;51.034;7.120;2023-01-30T00:38:10;101145.81;;;2.97;77.71
48015;BME280;33780;51.034;7.120;2023-01-30T00:40:36;101140.53;;;2.97;77.23
48015;BME280;33780;51.034;7.120;2023-01-30T00:43:01;101137.81;;;2.99;77.58
48015;BME280;33780;51.034;7.120;2023-01-30T00:45:46;101136.88;;;3.00;77.79
48015;BME280;33780;51.034;7.120;2023-01-30T00:48:31;101128.03;;;3.01;77.51
48015;BME280;33780;51.034;7.120;2023-01-30T00:50:57;101123.50;;;3.03;77.38
48015;BME280;33780;51.034;7.120;2023-01-30T00:53:22;101117.28;;;3.04;77.99
48015;BME280;33780;51.034;7.120;2023-01-30T00:55:52;101126.91;;;3.07;77.61
48015;BME280;33780;51.034;7.120;2023-01-30T00:58:18;101113.59;;;3.08;77.83
48015;BME280;33780;51.034;7.120;2023-01-30T01:00:44;101124.09;;;3.10;78.24
48015;BME280;33780;51.034;7.120;2023-01-30T01:03:09;101106.38;;;3.12;78.46
48015;BME280;33780;51.034;7.120;2023-01-30T01:05:34;101105.44;;;3.13;77.92
48015;BME280;33780;51.034;7.120;2023-01-30T01:08:00;101090.34;;;3.15;78.29
48015;BME280;33780;51.034;7.120;2023-01-30T01:10:26;101074.41;;;3.16;78.63
48015;BME280;33780;51.034;7.120;2023-01-30T01:12:51;101087.47;;;3.19;78.95
48015;BME280;33780;51.034;7.120;2023-01-30T01:15:18;101077.66;;;3.21;78.50
48015;BME280;33780;51.034;7.120;2023-01-30T01:17:43;101088.97;;;3.25;78.54
48015;BME280;33780;51.034;7.120;2023-01-30T01:20:09;101098.63;;;3.26;79.08
48015;BME280;33780;51.034;7.120;2023-01-30T01:22:35;101093.09;;;3.30;79.26
48015;BME280;33780;51.034;7.120;2023-01-30T01:25:00;101080.66;;;3.32;79.25
48015;BME280;33780;51.034;7.120;2023-01-30T01:27:27;101074.34;;;3.35;79.37
48015;BME280;33780;51.034;7.120;2023-01-30T01:29:53;101074.19;;;3.38;79.95
48015;BME280;33780;51.034;7.120;2023-01-30T01:32:19;101073.13;;;3.42;81.37
48015;BME280;33780;51.034;7.120;2023-01-30T01:34:45;101068.53;;;3.46;81.00
48015;BME280;33780;51.034;7.120;2023-01-30T01:37:10;101055.13;;;3.49;80.16
48015;BME280;33780;51.034;7.120;2023-01-30T01:39:35;101067.25;;;3.53;80.19
48015;BME280;33780;51.034;7.120;2023-01-30T01:42:21;101062.75;;;3.55;80.65
48015;BME280;33780;51.034;7.120;2023-01-30T01:47:39;101061.44;;;3.63;81.17
48015;BME280;33780;51.034;7.120;2023-01-30T01:50:10;101058.63;;;3.67;81.22
48015;BME280;33780;51.034;7.120;2023-01-30T01:52:38;101061.09;;;3.70;82.81
48015;BME280;33780;51.034;7.120;2023-01-30T01:55:04;101069.81;;;3.72;82.04
48015;BME280;33780;51.034;7.120;2023-01-30T01:57:36;101054.63;;;3.75;82.44
48015;BME280;33780;51.034;7.120;2023-01-30T02:00:12;101063.28;;;3.79;82.13
48015;BME280;33780;51.034;7.120;2023-01-30T02:02:42;101052.63;;;3.80;81.98
48015;BME280;33780;51.034;7.120;2023-01-30T02:05:08;101042.81;;;3.82;82.52
48015;BME280;33780;51.034;7.120;2023-01-30T02:07:39;101041.78;;;3.85;82.51
48015;BME280;33780;51.034;7.120;2023-01-30T02:10:07;101046.91;;;3.88;82.36
48015;BME280;33780;51.034;7.120;2023-01-30T02:12:34;101038.03;;;3.89;83.21
48015;BME280;33780;51.034;7.120;2023-01-30T02:15:01;101021.97;;;3.92;82.36
48015;BME280;33780;51.034;7.120;2023-01-30T02:17:28;101024.47;;;3.95;82.64
48015;BME280;33780;51.034;7.120;2023-01-30T02:19:59;101027.91;;;3.97;82.92
48015;BME280;33780;51.034;7.120;2023-01-30T02:22:46;101014.56;;;3.99;82.99
48015;BME280;33780;51.034;7.120;2023-01-30T02:25:48;100995.88;;;4.02;82.98
48015;BME280;33780;51.034;7.120;2023-01-30T02:28:36;101003.72;;;4.03;82.78
48015;BME280;33780;51.034;7.120;2023-01-30T02:33:59;101001.84;;;4.05;82.44
48015;BME280;33780;51.034;7.120;2023-01-30T02:39:35;100990.22;;;4.08;83.55
48015;BME280;33780;51.034;7.120;2023-01-30T02:42:12;100976.72;;;4.12;83.48
48015;BME280;33780;51.034;7.120;2023-01-30T02:47:15;100970.34;;;4.16;83.83
48015;BME280;33780;51.034;7.120;2023-01-30T02:49:47;100971.19;;;4.17;83.72
48015;BME280;33780;51.034;7.120;2023-01-30T02:52:14;100970.25;;;4.18;84.22
48015;BME280;33780;51.034;7.120;2023-01-30T02:54:40;100968.47;;;4.18;83.97
48015;BME280;33780;51.034;7.120;2023-01-30T02:57:22;100958.63;;;4.20;84.27
48015;BME280;33780;51.034;7.120;2023-01-30T02:59:54;100963.00;;;4.21;84.23
48015;BME280;33780;51.034;7.120;2023-01-30T03:02:46;100954.97;;;4.23;83.85
48015;BME280;33780;51.034;7.120;2023-01-30T03:11:01;100934.44;;;4.27;84.13
48015;BME280;33780;51.034;7.120;2023-01-30T03:16:07;100922.81;;;4.29;84.20
48015;BME280;33780;51.034;7.120;2023-01-30T03:18:34;100925.38;;;4.31;84.52
48015;BME280;33780;51.034;7.120;2023-01-30T03:21:04;100932.31;;;4.33;84.25
48015;BME280;33780;51.034;7.120;2023-01-30T03:23:30;100929.59;;;4.35;84.59
48015;BME280;33780;51.034;7.120;2023-01-30T03:25:56;100927.69;;;4.37;83.80
48015;BME280;33780;51.034;7.120;2023-01-30T03:28:22;100934.78;;;4.36;84.27
48015;BME280;33780;51.034;7.120;2023-01-30T03:30:48;100925.91;;;4.37;83.94
48015;BME280;33780;51.034;7.120;2023-01-30T03:33:14;100926.56;;;4.41;84.21
48015;BME280;33780;51.034;7.120;2023-01-30T03:35:40;100921.28;;;4.41;84.02
48015;BME280;33780;51.034;7.120;2023-01-30T03:38:06;100918.44;;;4.44;83.77
48015;BME280;33780;51.034;7.120;2023-01-30T03:40:31;100912.22;;;4.45;84.08
48015;BME280;33780;51.034;7.120;2023-01-30T03:42:57;100910.31;;;4.47;83.84
48015;BME280;33780;51.034;7.120;2023-01-30T03:45:22;100904.06;;;4.48;84.33
48015;BME280;33780;51.034;7.120;2023-01-30T03:47:47;100909.31;;;4.49;84.25
48015;BME280;33780;51.034;7.120;2023-01-30T03:50:13;100907.53;;;4.50;83.89
48015;BME280;33780;51.034;7.120;2023-01-30T03:52:38;100908.38;;;4.50;83.98
48015;BME280;33780;51.034;7.120;2023-01-30T03:55:04;100911.78;;;4.52;84.01
48015;BME280;33780;51.034;7.120;2023-01-30T03:57:30;100887.00;;;4.53;83.94
48015;BME280;33780;51.034;7.120;2023-01-30T03:59:55;100881.59;;;4.55;83.98
48015;BME280;33780;51.034;7.120;2023-01-30T04:02:20;100882.28;;;4.59;84.24
48015;BME280;33780;51.034;7.120;2023-01-30T04:04:48;100875.16;;;4.59;83.65
48015;BME280;33780;51.034;7.120;2023-01-30T04:07:13;100873.38;;;4.60;83.78
48015;BME280;33780;51.034;7.120;2023-01-30T04:09:38;100878.66;;;4.60;84.17
48015;BME280;33780;51.034;7.120;2023-01-30T04:12:04;100861.91;;;4.59;84.52
48015;BME280;33780;51.034;7.120;2023-01-30T04:14:29;100860.03;;;4.61;84.57
48015;BME280;33780;51.034;7.120;2023-01-30T04:16:54;100848.38;;;4.64;84.20
48015;BME280;33780;51.034;7.120;2023-01-30T04:19:20;100840.34;;;4.65;84.75
48015;BME280;33780;51.034;7.120;2023-01-30T04:21:45;100841.13;;;4.67;84.49
48015;BME280;33780;51.034;7.120;2023-01-30T04:24:10;100834.03;;;4.68;84.39
48015;BME280;33780;51.034;7.120;2023-01-30T04:26:35;100844.63;;;4.68;85.04
48015;BME280;33780;51.034;7.120;2023-01-30T04:29:01;100849.84;;;4.69;84.37
48015;BME280;33780;51.034;7.120;2023-01-30T04:31:26;100852.41;;;4.71;84.16
48015;BME280;33780;51.034;7.120;2023-01-30T04:33:51;100860.34;;;4.71;85.04
48015;BME280;33780;51.034;7.120;2023-01-30T04:36:17;100850.69;;;4.70;84.79
48015;BME280;33780;51.034;7.120;2023-01-30T04:38:42;100855.06;;;4.71;84.74
48015;BME280;33780;51.034;7.120;2023-01-30T04:41:07;100862.06;;;4.72;84.58
48015;BME280;33780;51.034;7.120;2023-01-30T04:43:33;100852.97;;;4.76;84.95
48015;BME280;33780;51.034;7.120;2023-01-30T04:45:58;100841.41;;;4.77;85.41
48015;BME280;33780;51.034;7.120;2023-01-30T04:48:24;100842.19;;;4.79;85.16
48015;BME280;33780;51.034;7.120;2023-01-30T04:50:51;100843.88;;;4.80;85.17
48015;BME280;33780;51.034;7.120;2023-01-30T04:53:18;100834.13;;;4.80;84.95
48015;BME280;33780;51.034;7.120;2023-01-30T04:55:45;100834.97;;;4.81;84.82
48015;BME280;33780;51.034;7.120;2023-01-30T04:58:10;100832.22;;;4.82;85.18
48015;BME280;33780;51.034;7.120;2023-01-30T05:00:36;100843.69;;;4.83;84.86
48015;BME280;33780;51.034;7.120;2023-01-30T05:03:01;100830.34;;;4.84;85.07
48015;BME280;33780;51.034;7.120;2023-01-30T05:05:26;100835.38;;;4.89;85.10
48015;BME280;33780;51.034;7.120;2023-01-30T05:07:52;100838.13;;;4.88;85.39
48015;BME280;33780;51.034;7.120;2023-01-30T05:10:18;100831.78;;;4.90;84.89
48015;BME280;33780;51.034;7.120;2023-01-30T05:12:43;100828.19;;;4.91;85.98
48015;BME280;33780;51.034;7.120;2023-01-30T05:15:10;100827.34;;;4.91;85.12
48015;BME280;33780;51.034;7.120;2023-01-30T05:17:36;100826.28;;;4.93;85.35
48015;BME280;33780;51.034;7.120;2023-01-30T05:20:02;100835.88;;;4.96;85.67
48015;BME280;33780;51.034;7.120;2023-01-30T05:22:28;100813.78;;;4.95;85.42
48015;BME280;33780;51.034;7.120;2023-01-30T05:24:53;100825.34;;;4.94;86.00
48015;BME280;33780;51.034;7.120;2023-01-30T05:27:19;100803.19;;;4.95;86.08
48015;BME280;33780;51.034;7.120;2023-01-30T05:29:45;100802.34;;;4.95;85.90
48015;BME280;33780;51.034;7.120;2023-01-30T05:32:14;100798.72;;;4.96;86.15
48015;BME280;33780;51.034;7.120;2023-01-30T05:34:39;100799.59;;;4.96;85.99
48015;BME280;33780;51.034;7.120;2023-01-30T05:37:05;100796.00;;;4.97;85.88
48015;BME280;33780;51.034;7.120;2023-01-30T05:39:31;100800.34;;;4.98;86.08
48015;BME280;33780;51.034;7.120;2023-01-30T05:41:56;100794.09;;;4.99;85.93
48015;BME280;33780;51.034;7.120;2023-01-30T05:44:22;100791.44;;;4.99;86.08
48015;BME280;33780;51.034;7.120;2023-01-30T05:46:47;100795.78;;;5.00;86.77
48015;BME280;33780;51.034;7.120;2023-01-30T05:49:13;100786.88;;;5.01;86.18
48015;BME280;33780;51.034;7.120;2023-01-30T05:51:38;100785.09;;;5.02;85.94
48015;BME280;33780;51.034;7.120;2023-01-30T05:54:03;100785.09;;;5.02;86.22
48015;BME280;33780;51.034;7.120;2023-01-30T05:56:36;100792.13;;;5.03;86.35
48015;BME280;33780;51.034;7.120;2023-01-30T05:59:02;100797.44;;;5.03;86.40
48015;BME280;33780;51.034;7.120;2023-01-30T06:01:34;100798.19;;;5.05;86.20
48015;BME280;33780;51.034;7.120;2023-01-30T06:04:00;100788.53;;;5.04;86.86
48015;BME280;33780;51.034;7.120;2023-01-30T06:06:26;100783.22;;;5.04;87.12
48015;BME280;33780;51.034;7.120;2023-01-30T06:09:02;100800.94;;;5.03;86.47
48015;BME280;33780;51.034;7.120;2023-01-30T06:11:29;100799.13;;;5.04;86.92
48015;BME280;33780;51.034;7.120;2023-01-30T06:14:08;100792.88;;;5.05;86.49
48015;BME280;33780;51.034;7.120;2023-01-30T06:16:43;100792.78;;;5.06;86.42
48015;BME280;33780;51.034;7.120;2023-01-30T06:19:08;100791.94;;;5.06;86.83
48015;BME280;33780;51.034;7.120;2023-01-30T06:21:33;100799.78;;;5.07;86.83
48015;BME280;33780;51.034;7.120;2023-01-30T06:24:02;100803.28;;;5.08;86.53
48015;BME280;33780;51.034;7.120;2023-01-30T06:26:27;100804.16;;;5.08;86.87
48015;BME280;33780;51.034;7.120;2023-01-30T06:28:53;100818.16;;;5.10;86.77
48015;BME280;33780;51.034;7.120;2023-01-30T06:31:18;100818.91;;;5.12;86.75
48015;BME280;33780;51.034;7.120;2023-01-30T06:33:46;100821.56;;;5.12;86.53
48015;BME280;33780;51.034;7.120;2023-01-30T06:36:22;100811.72;;;5.14;87.32
48015;BME280;33780;51.034;7.120;2023-01-30T06:38:47;100803.75;;;5.14;87.31
48015;BME280;33780;51.034;7.120;2023-01-30T06:41:13;100798.34;;;5.16;86.88
48015;BME280;33780;51.034;7.120;2023-01-30T06:43:40;100803.66;;;5.16;86.88
48015;BME280;33780;51.034;7.120;2023-01-30T06:46:05;100814.16;;;5.18;86.45
48015;BME280;33780;51.034;7.120;2023-01-30T06:48:31;100809.63;;;5.20;86.67
48015;BME280;33780;51.034;7.120;2023-01-30T06:50:56;100802.44;;;5.22;87.02
48015;BME280;33780;51.034;7.120;2023-01-30T06:53:21;100802.34;;;5.23;87.28
48015;BME280;33780;51.034;7.120;2023-01-30T06:55:49;100800.56;;;5.24;86.99
48015;BME280;33780;51.034;7.120;2023-01-30T06:58:14;100811.91;;;5.26;87.52
48015;BME280;33780;51.034;7.120;2023-01-30T07:00:41;100844.59;;;5.26;88.02
48015;BME280;33780;51.034;7.120;2023-01-30T07:03:11;100845.47;;;5.27;87.86
48015;BME280;33780;51.034;7.120;2023-01-30T07:05:40;100850.66;;;5.28;87.81
48015;BME280;33780;51.034;7.120;2023-01-30T07:08:07;100850.66;;;5.28;87.81
48015;BME280;33780;51.034;7.120;2023-01-30T07:10:32;100854.91;;;5.31;87.52
48015;BME280;33780;51.034;7.120;2023-01-30T07:13:01;100853.03;;;5.33;87.68
48015;BME280;33780;51.034;7.120;2023-01-30T07:15:27;100829.91;;;5.35;88.01
48015;BME280;33780;51.034;7.120;2023-01-30T07:17:52;100829.81;;;5.36;87.82
48015;BME280;33780;51.034;7.120;2023-01-30T07:20:23;100840.16;;;5.41;87.63
48015;BME280;33780;51.034;7.120;2023-01-30T07:22:53;100840.06;;;5.42;88.14
48015;BME280;33780;51.034;7.120;2023-01-30T07:25:27;100828.28;;;5.46;88.07
48015;BME280;33780;51.034;7.120;2023-01-30T07:27:55;100844.97;;;5.49;87.98
48015;BME280;33780;51.034;7.120;2023-01-30T07:30:32;100820.97;;;5.50;88.58
48015;BME280;33780;51.034;7.120;2023-01-30T07:33:00;100837.66;;;5.52;88.40
48015;BME280;33780;51.034;7.120;2023-01-30T07:35:30;100840.13;;;5.55;88.33
48015;BME280;33780;51.034;7.120;2023-01-30T07:37:59;100840.97;;;5.56;88.45
48015;BME280;33780;51.034;7.120;2023-01-30T07:40:35;100844.31;;;5.59;88.07
48015;BME280;33780;51.034;7.120;2023-01-30T07:46:25;100828.19;;;5.62;88.70
48015;BME280;33780;51.034;7.120;2023-01-30T07:49:04;100834.13;;;5.66;89.37
48015;BME280;33780;51.034;7.120;2023-01-30T07:51:40;100836.28;;;5.73;89.03
48015;BME280;33780;51.034;7.120;2023-01-30T07:54:06;100854.59;;;5.78;89.02
48015;BME280;33780;51.034;7.120;2023-01-30T07:57:02;100847.50;;;5.79;89.00
48015;BME280;33780;51.034;7.120;2023-01-30T07:59:43;100842.94;;;5.81;89.43
48015;BME280;33780;51.034;7.120;2023-01-30T08:02:41;100860.56;;;5.82;89.56
48015;BME280;33780;51.034;7.120;2023-01-30T08:05:08;100853.34;;;5.84;88.74
48015;BME280;33780;51.034;7.120;2023-01-30T08:07:39;100856.75;;;5.86;88.77
48015;BME280;33780;51.034;7.120;2023-01-30T08:10:11;100847.75;;;5.88;89.20
48015;BME280;33780;51.034;7.120;2023-01-30T08:12:53;100845.00;;;5.90;89.04
48015;BME280;33780;51.034;7.120;2023-01-30T08:15:26;100845.75;;;5.92;88.51
48015;BME280;33780;51.034;7.120;2023-01-30T08:20:31;100866.75;;;5.96;89.37
48015;BME280;33780;51.034;7.120;2023-01-30T08:23:17;100858.66;;;5.98;88.38
48015;BME280;33780;51.034;7.120;2023-01-30T08:25:56;100871.84;;;5.99;88.86
48015;BME280;33780;51.034;7.120;2023-01-30T08:28:41;100862.94;;;6.00;89.18
48015;BME280;33780;51.034;7.120;2023-01-30T08:31:32;100861.03;;;6.02;89.10
48015;BME280;33780;51.034;7.120;2023-01-30T08:34:00;100859.22;;;6.03;88.33
48015;BME280;33780;51.034;7.120;2023-01-30T08:36:51;100866.97;;;6.06;88.50
48015;BME280;33780;51.034;7.120;2023-01-30T08:39:23;100869.53;;;6.07;88.52
48015;BME280;33780;51.034;7.120;2023-01-30T08:41:56;100877.41;;;6.09;88.32
48015;BME280;33780;51.034;7.120;2023-01-30T08:44:38;100879.03;;;6.12;88.60
48015;BME280;33780;51.034;7.120;2023-01-30T08:47:06;100870.88;;;6.15;88.69
48015;BME280;33780;51.034;7.120;2023-01-30T08:49:41;100869.72;;;6.19;88.52
48015;BME280;33780;51.034;7.120;2023-01-30T08:52:09;100873.84;;;6.23;88.25
48015;BME280;33780;51.034;7.120;2023-01-30T08:54:41;100875.34;;;6.27;88.18
48015;BME280;33780;51.034;7.120;2023-01-30T08:57:09;100875.19;;;6.30;88.59
48015;BME280;33780;51.034;7.120;2023-01-30T08:59:47;100871.38;;;6.34;88.10
48015;BME280;33780;51.034;7.120;2023-01-30T09:02:23;100879.88;;;6.39;88.27
48015;BME280;33780;51.034;7.120;2023-01-30T09:04:54;100879.56;;;6.44;88.92
48015;BME280;33780;51.034;7.120;2023-01-30T09:10:11;100900.66;;;6.47;88.49
48015;BME280;33780;51.034;7.120;2023-01-30T09:12:47;100904.16;;;6.47;87.79
48015;BME280;33780;51.034;7.120;2023-01-30T09:15:13;100907.56;;;6.49;88.07
48015;BME280;33780;51.034;7.120;2023-01-30T09:17:44;100902.16;;;6.51;87.90
48015;BME280;33780;51.034;7.120;2023-01-30T09:20:19;100901.75;;;6.57;88.19
48015;BME280;33780;51.034;7.120;2023-01-30T09:22:50;100886.31;;;6.62;87.82
48015;BME280;33780;51.034;7.120;2023-01-30T09:25:17;100867.44;;;6.66;87.86
48015;BME280;33780;51.034;7.120;2023-01-30T09:27:46;100859.97;;;6.72;87.97
48015;BME280;33780;51.034;7.120;2023-01-30T09:30:12;100850.94;;;6.74;87.33
48015;BME280;33780;51.034;7.120;2023-01-30T09:32:41;100872.00;;;6.77;87.45
48015;BME280;33780;51.034;7.120;2023-01-30T09:35:17;100875.50;;;6.78;87.31
48015;BME280;33780;51.034;7.120;2023-01-30T09:37:54;100866.56;;;6.79;86.81
48015;BME280;33780;51.034;7.120;2023-01-30T09:40:29;100875.31;;;6.81;86.49
48015;BME280;33780;51.034;7.120;2023-01-30T09:43:20;100892.88;;;6.83;86.77
48015;BME280;33780;51.034;7.120;2023-01-30T09:46:26;100888.31;;;6.85;86.66
48015;BME280;33780;51.034;7.120;2023-01-30T09:49:07;100898.00;;;6.86;86.29
48015;BME280;33780;51.034;7.120;2023-01-30T09:54:44;100907.03;;;6.84;85.05
48015;BME280;33780;51.034;7.120;2023-01-30T09:57:23;100904.16;;;6.87;84.56
48015;BME280;33780;51.034;7.120;2023-01-30T10:36:09;100913.66;;;7.04;79.30
48015;BME280;33780;51.034;7.120;2023-01-30T10:38:58;100926.00;;;7.05;79.87
48015;BME280;33780;51.034;7.120;2023-01-30T10:42:14;100941.13;;;7.04;79.57
48015;BME280;33780;51.034;7.120;2023-01-30T10:44:42;100934.94;;;7.04;79.85
48015;BME280;33780;51.034;7.120;2023-01-30T10:51:03;100935.06;;;7.02;79.57
48015;BME280;33780;51.034;7.120;2023-01-30T11:06:27;100940.13;;;6.92;76.38
48015;BME280;33780;51.034;7.120;2023-01-30T11:09:15;100949.81;;;6.93;77.06
48015;BME280;33780;51.034;7.120;2023-01-30T11:11:53;100942.78;;;6.92;76.38
48015;BME280;33780;51.034;7.120;2023-01-30T11:14:29;100934.72;;;6.94;77.09
48015;BME280;33780;51.034;7.120;2023-01-30T11:17:20;100936.50;;;6.93;76.31
48015;BME280;33780;51.034;7.120;2023-01-30T11:22:36;100937.47;;;6.92;75.68
48015;BME280;33780;51.034;7.120;2023-01-30T11:25:22;100943.66;;;6.93;76.67
48015;BME280;33780;51.034;7.120;2023-01-30T11:28:38;100936.50;;;6.93;76.19
48015;BME280;33780;51.034;7.120;2023-01-30T11:31:41;100946.09;;;6.96;76.77
48015;BME280;33780;51.034;7.120;2023-01-30T11:34:42;100936.19;;;6.98;76.33
48015;BME280;33780;51.034;7.120;2023-01-30T11:37:47;100936.94;;;7.00;74.31
48015;BME280;33780;51.034;7.120;2023-01-30T11:43:44;100923.56;;;7.02;74.76
48015;BME280;33780;51.034;7.120;2023-01-30T11:46:46;100944.53;;;7.06;75.16
48015;BME280;33780;51.034;7.120;2023-01-30T11:49:21;100942.50;;;7.10;75.38
48015;BME280;33780;51.034;7.120;2023-01-30T11:52:06;100928.13;;;7.12;75.14
48015;BME280;33780;51.034;7.120;2023-01-30T11:54:53;100923.56;;;7.14;74.99
48015;BME280;33780;51.034;7.120;2023-01-30T12:00:19;100929.63;;;7.16;74.57
48015;BME280;33780;51.034;7.120;2023-01-30T12:03:13;100938.38;;;7.18;73.60
48015;BME280;33780;51.034;7.120;2023-01-30T12:05:54;100936.56;;;7.19;72.78
48015;BME280;33780;51.034;7.120;2023-01-30T12:08:37;100942.94;;;7.16;72.80
48015;BME280;33780;51.034;7.120;2023-01-30T12:14:37;100941.97;;;7.17;73.12
48015;BME280;33780;51.034;7.120;2023-01-30T12:17:32;100948.06;;;7.19;73.96
48015;BME280;33780;51.034;7.120;2023-01-30T12:20:04;100961.28;;;7.21;74.21
48015;BME280;33780;51.034;7.120;2023-01-30T12:25:24;100936.25;;;7.23;72.70
48015;BME280;33780;51.034;7.120;2023-01-30T12:28:11;100934.44;;;7.24;73.45
48015;BME280;33780;51.034;7.120;2023-01-30T12:30:47;100945.09;;;7.24;72.47
48015;BME280;33780;51.034;7.120;2023-01-30T12:33:15;100936.16;;;7.25;72.79
48015;BME280;33780;51.034;7.120;2023-01-30T12:41:07;100942.84;;;7.31;72.23
48015;BME280;33780;51.034;7.120;2023-01-30T12:52:43;100955.53;;;7.40;72.31
48015;BME280;33780;51.034;7.120;2023-01-30T12:55:24;100950.75;;;7.45;72.36
48015;BME280;33780;51.034;7.120;2023-01-30T12:58:30;100947.22;;;7.44;70.48
48015;BME280;33780;51.034;7.120;2023-01-30T13:09:41;100953.72;;;7.53;70.82
48015;BME280;33780;51.034;7.120;2023-01-30T13:12:34;100953.63;;;7.54;71.17
48015;BME280;33780;51.034;7.120;2023-01-30T13:15:30;100947.44;;;7.54;69.18
48015;BME280;33780;51.034;7.120;2023-01-30T13:18:17;100966.97;;;7.54;68.86
48015;BME280;33780;51.034;7.120;2023-01-30T13:23:56;100978.47;;;7.55;66.06
48015;BME280;33780;51.034;7.120;2023-01-30T13:26:32;100964.06;;;7.57;67.57
48015;BME280;33780;51.034;7.120;2023-01-30T13:29:34;100974.50;;;7.61;68.59
48015;BME280;33780;51.034;7.120;2023-01-30T13:32:02;100994.84;;;7.62;66.69
48015;BME280;33780;51.034;7.120;2023-01-30T13:34:43;100993.78;;;7.64;67.05
48015;BME280;33780;51.034;7.120;2023-01-30T13:37:20;100987.28;;;7.68;67.05
48015;BME280;33780;51.034;7.120;2023-01-30T13:42:44;101010.28;;;7.69;65.61
48015;BME280;33780;51.034;7.120;2023-01-30T13:45:20;100982.81;;;7.69;65.45
48015;BME280;33780;51.034;7.120;2023-01-30T14:02:42;101029.16;;;7.79;62.58
48015;BME280;33780;51.034;7.120;2023-01-30T14:08:56;101030.97;;;7.78;63.81
48015;BME280;33780;51.034;7.120;2023-01-30T14:12:14;101027.34;;;7.79;64.53
48015;BME280;33780;51.034;7.120;2023-01-30T14:20:57;101023.72;;;7.80;65.05
48015;BME280;33780;51.034;7.120;2023-01-30T14:23:38;101041.31;;;7.83;65.42
48015;BME280;33780;51.034;7.120;2023-01-30T14:26:08;101044.72;;;7.85;64.98
48015;BME280;33780;51.034;7.120;2023-01-30T14:28:44;101038.31;;;7.87;65.82
48015;BME280;33780;51.034;7.120;2023-01-30T14:31:11;101043.53;;;7.89;66.08
48015;BME280;33780;51.034;7.120;2023-01-30T14:33:54;101043.47;;;7.91;65.05
48015;BME280;33780;51.034;7.120;2023-01-30T14:36:33;101043.34;;;7.92;64.00
48015;BME280;33780;51.034;7.120;2023-01-30T14:39:36;101053.91;;;7.94;63.49
48015;BME280;33780;51.034;7.120;2023-01-30T14:42:23;101060.09;;;7.94;63.65
48015;BME280;33780;51.034;7.120;2023-01-30T14:45:15;101063.59;;;7.95;62.82
48015;BME280;33780;51.034;7.120;2023-01-30T14:50:47;101069.34;;;7.88;62.58
48015;BME280;33780;51.034;7.120;2023-01-30T14:53:32;101070.09;;;7.91;64.19
48015;BME280;33780;51.034;7.120;2023-01-30T14:56:00;101076.28;;;7.91;63.74
48015;BME280;33780;51.034;7.120;2023-01-30T14:58:33;101093.03;;;7.93;64.81
48015;BME280;33780;51.034;7.120;2023-01-30T15:01:04;101086.63;;;7.96;64.39
48015;BME280;33780;51.034;7.120;2023-01-30T15:03:31;101096.66;;;7.92;62.47
48015;BME280;33780;51.034;7.120;2023-01-30T15:06:06;101090.25;;;7.95;64.38
48015;BME280;33780;51.034;7.120;2023-01-30T15:08:41;101104.53;;;7.94;63.91
48015;BME280;33780;51.034;7.120;2023-01-30T15:11:17;101115.31;;;7.92;64.03
48015;BME280;33780;51.034;7.120;2023-01-30T15:28:57;101120.38;;;7.82;64.76
48015;BME280;33780;51.034;7.120;2023-01-30T15:32:01;101134.66;;;7.81;64.45
48015;BME280;33780;51.034;7.120;2023-01-30T15:34:46;101140.97;;;7.80;64.33
48015;BME280;33780;51.034;7.120;2023-01-30T15:37:37;101143.72;;;7.79;64.97
48015;BME280;33780;51.034;7.120;2023-01-30T15:40:22;101149.06;;;7.79;64.37
48015;BME280;33780;51.034;7.120;2023-01-30T15:46:02;101173.34;;;7.74;63.95
48015;BME280;33780;51.034;7.120;2023-01-30T15:49:51;101178.78;;;7.73;64.16
48015;BME280;33780;51.034;7.120;2023-01-30T15:51:47;101172.88;;;7.68;65.28
48015;BME280;33780;51.034;7.120;2023-01-30T15:54:17;101177.47;;;7.66;65.06
48015;BME280;33780;51.034;7.120;2023-01-30T15:56:45;101189.81;;;7.67;65.27
48015;BME280;33780;51.034;7.120;2023-01-30T15:59:27;101183.00;;;7.63;65.10
48015;BME280;33780;51.034;7.120;2023-01-30T16:02:10;101198.03;;;7.64;65.60
48015;BME280;33780;51.034;7.120;2023-01-30T16:04:37;101197.16;;;7.63;65.82
48015;BME280;33780;51.034;7.120;2023-01-30T16:07:19;101207.72;;;7.65;66.21
48015;BME280;33780;51.034;7.120;2023-01-30T16:09:56;101208.69;;;7.64;66.39
48015;BME280;33780;51.034;7.120;2023-01-30T16:12:26;101213.16;;;7.63;66.97
48015;BME280;33780;51.034;7.120;2023-01-30T16:14:52;101211.34;;;7.64;66.91
48015;BME280;33780;51.034;7.120;2023-01-30T16:17:32;101214.31;;;7.59;66.48
48015;BME280;33780;51.034;7.120;2023-01-30T16:19:59;101226.03;;;7.56;66.41
48015;BME280;33780;51.034;7.120;2023-01-30T16:22:33;101229.72;;;7.54;66.40
48015;BME280;33780;51.034;7.120;2023-01-30T16:24:59;101241.53;;;7.50;66.51